sensor_id;sensor_type;location;lat;lon;timestamp;pressure;altitude;pressure_sealevel;temperature;humidity
50125;BME280;36023;48.670;6.184;2023-05-03T00:00:38;99852.44;;;18.67;39.91
50125;BME280;36023;48.670;6.184;2023-05-03T00:03:04;99856.00;;;18.66;39.80
50125;BME280;36023;48.670;6.184;2023-05-03T00:05:33;99845.50;;;18.66;39.78
50125;BME280;36023;48.670;6.184;2023-05-03T00:07:58;99848.13;;;18.66;39.78
50125;BME280;36023;48.670;6.184;2023-05-03T00:10:25;99845.50;;;18.66;39.71
50125;BME280;36023;48.670;6.184;2023-05-03T00:12:50;99842.03;;;18.65;39.60
50125;BME280;36023;48.670;6.184;2023-05-03T00:15:16;99847.25;;;18.65;39.64
50125;BME280;36023;48.670;6.184;2023-05-03T00:17:41;99841.13;;;18.65;39.54
50125;BME280;36023;48.670;6.184;2023-05-03T00:20:07;99840.28;;;18.64;39.51
50125;BME280;36023;48.670;6.184;2023-05-03T00:22:33;99837.66;;;18.64;39.47
50125;BME280;36023;48.670;6.184;2023-05-03T00:24:59;99839.44;;;18.64;39.52
50125;BME280;36023;48.670;6.184;2023-05-03T00:27:25;99839.44;;;18.64;39.43
50125;BME280;36023;48.670;6.184;2023-05-03T00:29:52;99831.56;;;18.64;39.36
50125;BME280;36023;48.670;6.184;2023-05-03T00:32:18;99835.97;;;18.63;39.38
50125;BME280;36023;48.670;6.184;2023-05-03T00:34:44;99826.38;;;18.62;39.28
50125;BME280;36023;48.670;6.184;2023-05-03T00:37:10;99824.59;;;18.63;39.27
50125;BME280;36023;48.670;6.184;2023-05-03T00:39:36;99818.50;;;18.62;39.16
50125;BME280;36023;48.670;6.184;2023-05-03T00:42:02;99813.25;;;18.62;39.15
50125;BME280;36023;48.670;6.184;2023-05-03T00:44:30;99819.44;;;18.61;39.13
50125;BME280;36023;48.670;6.184;2023-05-03T00:46:55;99817.72;;;18.60;39.10
50125;BME280;36023;48.670;6.184;2023-05-03T00:49:23;99814.19;;;18.61;39.09
50125;BME280;36023;48.670;6.184;2023-05-03T00:51:48;99809.84;;;18.60;38.96
50125;BME280;36023;48.670;6.184;2023-05-03T00:54:14;99812.53;;;18.59;38.95
50125;BME280;36023;48.670;6.184;2023-05-03T00:56:40;99816.00;;;18.59;38.91
50125;BME280;36023;48.670;6.184;2023-05-03T00:59:07;99819.53;;;18.58;38.82
50125;BME280;36023;48.670;6.184;2023-05-03T01:01:33;99812.53;;;18.59;38.84
50125;BME280;36023;48.670;6.184;2023-05-03T01:04:01;99812.53;;;18.59;38.82
50125;BME280;36023;48.670;6.184;2023-05-03T01:09:05;99812.59;;;18.57;38.74
50125;BME280;36023;48.670;6.184;2023-05-03T01:11:43;99810.81;;;18.58;38.65
50125;BME280;36023;48.670;6.184;2023-05-03T01:14:35;99816.97;;;18.57;38.62
50125;BME280;36023;48.670;6.184;2023-05-03T01:16:59;99807.41;;;18.56;38.48
50125;BME280;36023;48.670;6.184;2023-05-03T01:21:54;99804.78;;;18.56;38.44
50125;BME280;36023;48.670;6.184;2023-05-03T01:24:21;99811.81;;;18.55;38.39
50125;BME280;36023;48.670;6.184;2023-05-03T01:26:48;99803.94;;;18.55;38.46
50125;BME280;36023;48.670;6.184;2023-05-03T01:29:13;99802.22;;;18.54;38.39
50125;BME280;36023;48.670;6.184;2023-05-03T01:36:45;99803.16;;;18.53;38.23
50125;BME280;36023;48.670;6.184;2023-05-03T01:39:15;99803.16;;;18.53;38.19
50125;BME280;36023;48.670;6.184;2023-05-03T01:41:45;99797.91;;;18.53;38.23
50125;BME280;36023;48.670;6.184;2023-05-03T01:44:15;99797.06;;;18.53;38.13
50125;BME280;36023;48.670;6.184;2023-05-03T01:46:41;99789.22;;;18.51;38.10
50125;BME280;36023;48.670;6.184;2023-05-03T01:49:07;99798.88;;;18.51;37.94
50125;BME280;36023;48.670;6.184;2023-05-03T01:51:33;99797.09;;;18.51;38.01
50125;BME280;36023;48.670;6.184;2023-05-03T01:53:58;99799.72;;;18.51;37.99
50125;BME280;36023;48.670;6.184;2023-05-03T01:56:24;99798.88;;;18.51;38.00
50125;BME280;36023;48.670;6.184;2023-05-03T01:58:50;99803.25;;;18.50;37.98
50125;BME280;36023;48.670;6.184;2023-05-03T02:01:16;99802.41;;;18.50;37.86
50125;BME280;36023;48.670;6.184;2023-05-03T02:03:42;99798.00;;;18.50;37.80
50125;BME280;36023;48.670;6.184;2023-05-03T02:06:09;99794.53;;;18.50;37.94
50125;BME280;36023;48.670;6.184;2023-05-03T02:08:35;99795.47;;;18.49;37.84
50125;BME280;36023;48.670;6.184;2023-05-03T02:11:00;99789.28;;;18.50;37.75
50125;BME280;36023;48.670;6.184;2023-05-03T02:13:26;99799.78;;;18.50;37.83
50125;BME280;36023;48.670;6.184;2023-05-03T02:15:51;99801.56;;;18.49;37.75
50125;BME280;36023;48.670;6.184;2023-05-03T02:18:17;99805.09;;;18.48;37.74
50125;BME280;36023;48.670;6.184;2023-05-03T02:20:45;99800.69;;;18.49;37.67
50125;BME280;36023;48.670;6.184;2023-05-03T02:23:10;99798.16;;;18.47;37.59
50125;BME280;36023;48.670;6.184;2023-05-03T02:25:36;99803.41;;;18.47;37.69
50125;BME280;36023;48.670;6.184;2023-05-03T02:28:05;99799.00;;;18.48;37.65
50125;BME280;36023;48.670;6.184;2023-05-03T02:30:31;99799.91;;;18.47;37.61
50125;BME280;36023;48.670;6.184;2023-05-03T02:32:56;99793.81;;;18.46;37.42
50125;BME280;36023;48.670;6.184;2023-05-03T02:35:22;99790.34;;;18.46;37.54
50125;BME280;36023;48.670;6.184;2023-05-03T02:37:48;99786.81;;;18.47;37.55
50125;BME280;36023;48.670;6.184;2023-05-03T02:40:15;99790.34;;;18.46;37.40
50125;BME280;36023;48.670;6.184;2023-05-03T02:42:43;99794.75;;;18.45;37.38
50125;BME280;36023;48.670;6.184;2023-05-03T02:45:13;99788.66;;;18.45;37.44
50125;BME280;36023;48.670;6.184;2023-05-03T02:47:39;99787.75;;;18.44;37.60
50125;BME280;36023;48.670;6.184;2023-05-03T02:50:05;99790.38;;;18.44;37.33
50125;BME280;36023;48.670;6.184;2023-05-03T02:52:35;99791.31;;;18.43;37.30
50125;BME280;36023;48.670;6.184;2023-05-03T02:55:00;99786.06;;;18.43;37.31
50125;BME280;36023;48.670;6.184;2023-05-03T02:57:27;99785.22;;;18.43;37.30
50125;BME280;36023;48.670;6.184;2023-05-03T02:59:54;99773.03;;;18.42;37.37
50125;BME280;36023;48.670;6.184;2023-05-03T03:02:21;99777.34;;;18.43;37.29
50125;BME280;36023;48.670;6.184;2023-05-03T03:04:47;99775.63;;;18.42;37.18
50125;BME280;36023;48.670;6.184;2023-05-03T03:07:13;99776.56;;;18.41;37.29
50125;BME280;36023;48.670;6.184;2023-05-03T03:09:38;99771.31;;;18.41;37.16
50125;BME280;36023;48.670;6.184;2023-05-03T03:12:04;99766.06;;;18.41;37.19
50125;BME280;36023;48.670;6.184;2023-05-03T03:14:31;99768.75;;;18.39;37.13
50125;BME280;36023;48.670;6.184;2023-05-03T03:16:56;99763.50;;;18.39;37.05
50125;BME280;36023;48.670;6.184;2023-05-03T03:19:22;99769.63;;;18.40;37.17
50125;BME280;36023;48.670;6.184;2023-05-03T03:21:47;99767.00;;;18.40;37.10
50125;BME280;36023;48.670;6.184;2023-05-03T03:24:14;99767.91;;;18.38;36.99
50125;BME280;36023;48.670;6.184;2023-05-03T03:26:40;99762.72;;;18.37;37.03
50125;BME280;36023;48.670;6.184;2023-05-03T03:29:07;99761.88;;;18.36;37.04
50125;BME280;36023;48.670;6.184;2023-05-03T03:31:37;99768.81;;;18.37;37.11
50125;BME280;36023;48.670;6.184;2023-05-03T03:34:03;99766.22;;;18.37;37.05
50125;BME280;36023;48.670;6.184;2023-05-03T03:36:29;99764.50;;;18.36;36.96
50125;BME280;36023;48.670;6.184;2023-05-03T03:38:56;99760.16;;;18.35;36.88
50125;BME280;36023;48.670;6.184;2023-05-03T03:41:23;99769.75;;;18.36;36.98
50125;BME280;36023;48.670;6.184;2023-05-03T03:43:49;99768.88;;;18.36;36.94
50125;BME280;36023;48.670;6.184;2023-05-03T03:46:18;99778.50;;;18.35;37.03
50125;BME280;36023;48.670;6.184;2023-05-03T03:48:47;99764.63;;;18.33;37.01
50125;BME280;36023;48.670;6.184;2023-05-03T03:51:13;99762.00;;;18.33;36.86
50125;BME280;36023;48.670;6.184;2023-05-03T03:53:43;99765.47;;;18.34;36.85
50125;BME280;36023;48.670;6.184;2023-05-03T03:56:10;99761.13;;;18.33;36.85
50125;BME280;36023;48.670;6.184;2023-05-03T03:58:36;99761.13;;;18.33;36.93
50125;BME280;36023;48.670;6.184;2023-05-03T04:01:05;99764.63;;;18.33;36.97
50125;BME280;36023;48.670;6.184;2023-05-03T04:03:32;99762.91;;;18.32;36.85
50125;BME280;36023;48.670;6.184;2023-05-03T04:05:58;99764.63;;;18.33;36.88
50125;BME280;36023;48.670;6.184;2023-05-03T04:08:26;99757.66;;;18.32;36.98
50125;BME280;36023;48.670;6.184;2023-05-03T04:10:52;99748.09;;;18.31;36.93
50125;BME280;36023;48.670;6.184;2023-05-03T04:13:18;99751.56;;;18.32;36.93
50125;BME280;36023;48.670;6.184;2023-05-03T04:15:47;99753.34;;;18.31;36.89
50125;BME280;36023;48.670;6.184;2023-05-03T04:18:13;99745.47;;;18.31;36.93
50125;BME280;36023;48.670;6.184;2023-05-03T04:20:40;99749.00;;;18.30;36.78
50125;BME280;36023;48.670;6.184;2023-05-03T04:23:07;99755.97;;;18.31;36.87
50125;BME280;36023;48.670;6.184;2023-05-03T04:25:34;99745.53;;;18.30;36.75
50125;BME280;36023;48.670;6.184;2023-05-03T04:28:07;99753.41;;;18.30;36.84
50125;BME280;36023;48.670;6.184;2023-05-03T04:30:37;99752.56;;;18.29;36.77
50125;BME280;36023;48.670;6.184;2023-05-03T04:33:02;99750.78;;;18.30;36.89
50125;BME280;36023;48.670;6.184;2023-05-03T04:35:32;99747.31;;;18.29;36.84
50125;BME280;36023;48.670;6.184;2023-05-03T04:38:02;99754.31;;;18.29;36.75
50125;BME280;36023;48.670;6.184;2023-05-03T04:40:30;99743.84;;;18.29;36.90
50125;BME280;36023;48.670;6.184;2023-05-03T04:43:03;99741.22;;;18.29;36.94
50125;BME280;36023;48.670;6.184;2023-05-03T04:45:33;99740.34;;;18.28;37.06
50125;BME280;36023;48.670;6.184;2023-05-03T04:48:01;99735.97;;;18.29;37.03
50125;BME280;36023;48.670;6.184;2023-05-03T04:50:30;99733.38;;;18.27;36.83
50125;BME280;36023;48.670;6.184;2023-05-03T04:52:55;99728.16;;;18.27;37.05
50125;BME280;36023;48.670;6.184;2023-05-03T04:55:23;99739.47;;;18.28;36.96
50125;BME280;36023;48.670;6.184;2023-05-03T04:57:50;99736.00;;;18.27;36.92
50125;BME280;36023;48.670;6.184;2023-05-03T05:00:16;99735.16;;;18.27;37.01
50125;BME280;36023;48.670;6.184;2023-05-03T05:02:49;99742.19;;;18.26;36.95
50125;BME280;36023;48.670;6.184;2023-05-03T05:05:16;99749.97;;;18.28;36.98
50125;BME280;36023;48.670;6.184;2023-05-03T05:07:43;99749.13;;;18.27;37.10
50125;BME280;36023;48.670;6.184;2023-05-03T05:10:10;99750.91;;;18.27;36.97
50125;BME280;36023;48.670;6.184;2023-05-03T05:12:36;99752.66;;;18.26;37.23
50125;BME280;36023;48.670;6.184;2023-05-03T05:15:03;99756.13;;;18.27;37.37
50125;BME280;36023;48.670;6.184;2023-05-03T05:17:29;99758.75;;;18.27;37.24
50125;BME280;36023;48.670;6.184;2023-05-03T05:19:55;99753.50;;;18.27;37.37
50125;BME280;36023;48.670;6.184;2023-05-03T05:22:21;99769.19;;;18.28;37.23
50125;BME280;36023;48.670;6.184;2023-05-03T05:24:53;99766.56;;;18.28;37.30
50125;BME280;36023;48.670;6.184;2023-05-03T05:27:22;99771.81;;;18.28;37.28
50125;BME280;36023;48.670;6.184;2023-05-03T05:29:50;99770.09;;;18.27;37.54
50125;BME280;36023;48.670;6.184;2023-05-03T05:32:15;99768.28;;;18.29;37.66
50125;BME280;36023;48.670;6.184;2023-05-03T05:34:41;99771.75;;;18.30;37.82
50125;BME280;36023;48.670;6.184;2023-05-03T05:37:09;99770.00;;;18.30;38.00
50125;BME280;36023;48.670;6.184;2023-05-03T05:39:35;99773.41;;;18.32;38.10
50125;BME280;36023;48.670;6.184;2023-05-03T05:42:01;99765.41;;;18.35;38.54
50125;BME280;36023;48.670;6.184;2023-05-03T05:44:28;99769.75;;;18.36;38.80
50125;BME280;36023;48.670;6.184;2023-05-03T05:46:55;99761.88;;;18.36;38.72
50125;BME280;36023;48.670;6.184;2023-05-03T05:49:22;99764.50;;;18.36;38.83
50125;BME280;36023;48.670;6.184;2023-05-03T05:51:47;99757.53;;;18.35;39.10
50125;BME280;36023;48.670;6.184;2023-05-03T05:54:13;99761.06;;;18.34;38.92
50125;BME280;36023;48.670;6.184;2023-05-03T05:56:39;99774.25;;;18.33;38.87
50125;BME280;36023;48.670;6.184;2023-05-03T05:59:05;99777.78;;;18.32;39.08
50125;BME280;36023;48.670;6.184;2023-05-03T06:01:32;99776.94;;;18.31;39.12
50125;BME280;36023;48.670;6.184;2023-05-03T06:03:59;99787.38;;;18.33;39.27
50125;BME280;36023;48.670;6.184;2023-05-03T06:06:27;99787.44;;;18.31;39.34
50125;BME280;36023;48.670;6.184;2023-05-03T06:08:53;99783.03;;;18.32;39.44
50125;BME280;36023;48.670;6.184;2023-05-03T06:11:19;99790.91;;;18.32;39.51
50125;BME280;36023;48.670;6.184;2023-05-03T06:13:45;99797.00;;;18.32;39.46
50125;BME280;36023;48.670;6.184;2023-05-03T06:16:14;99811.03;;;18.31;39.54
50125;BME280;36023;48.670;6.184;2023-05-03T06:18:40;99800.59;;;18.30;39.40
50125;BME280;36023;48.670;6.184;2023-05-03T06:21:06;99801.47;;;18.30;39.56
50125;BME280;36023;48.670;6.184;2023-05-03T06:23:31;99798.84;;;18.30;39.50
50125;BME280;36023;48.670;6.184;2023-05-03T06:25:59;99799.75;;;18.29;39.51
50125;BME280;36023;48.670;6.184;2023-05-03T06:28:25;99802.38;;;18.29;39.60
50125;BME280;36023;48.670;6.184;2023-05-03T06:30:54;99809.41;;;18.29;39.74
50125;BME280;36023;48.670;6.184;2023-05-03T06:33:20;99815.50;;;18.29;39.59
50125;BME280;36023;48.670;6.184;2023-05-03T06:35:49;99812.00;;;18.29;39.69
50125;BME280;36023;48.670;6.184;2023-05-03T06:38:16;99808.50;;;18.28;39.70
50125;BME280;36023;48.670;6.184;2023-05-03T06:40:43;99805.97;;;18.27;39.79
50125;BME280;36023;48.670;6.184;2023-05-03T06:43:09;99809.50;;;18.26;39.63
50125;BME280;36023;48.670;6.184;2023-05-03T06:45:49;99800.72;;;18.27;39.64
50125;BME280;36023;48.670;6.184;2023-05-03T06:48:16;99801.63;;;18.26;39.63
50125;BME280;36023;48.670;6.184;2023-05-03T06:50:42;99792.06;;;18.25;39.79
50125;BME280;36023;48.670;6.184;2023-05-03T06:53:08;99788.59;;;18.24;39.66
50125;BME280;36023;48.670;6.184;2023-05-03T06:55:33;99789.50;;;18.23;39.73
50125;BME280;36023;48.670;6.184;2023-05-03T06:57:59;99800.00;;;18.23;39.52
50125;BME280;36023;48.670;6.184;2023-05-03T07:00:26;99792.97;;;18.24;39.50
50125;BME280;36023;48.670;6.184;2023-05-03T07:02:52;99799.16;;;18.23;39.57
50125;BME280;36023;48.670;6.184;2023-05-03T07:05:19;99799.22;;;18.21;39.50
50125;BME280;36023;48.670;6.184;2023-05-03T07:07:44;99797.47;;;18.20;39.44
50125;BME280;36023;48.670;6.184;2023-05-03T07:10:10;99798.41;;;18.19;39.41
50125;BME280;36023;48.670;6.184;2023-05-03T07:12:36;99808.03;;;18.19;39.42
50125;BME280;36023;48.670;6.184;2023-05-03T07:15:01;99799.38;;;18.17;39.27
50125;BME280;36023;48.670;6.184;2023-05-03T07:17:27;99794.13;;;18.17;39.46
50125;BME280;36023;48.670;6.184;2023-05-03T07:19:52;99801.16;;;18.16;39.38
50125;BME280;36023;48.670;6.184;2023-05-03T07:22:18;99798.53;;;18.16;39.42
50125;BME280;36023;48.670;6.184;2023-05-03T07:24:52;99803.78;;;18.16;39.39
50125;BME280;36023;48.670;6.184;2023-05-03T07:27:20;99794.19;;;18.15;39.56
50125;BME280;36023;48.670;6.184;2023-05-03T07:29:46;99787.25;;;18.14;39.57
50125;BME280;36023;48.670;6.184;2023-05-03T07:32:12;99790.72;;;18.15;39.58
50125;BME280;36023;48.670;6.184;2023-05-03T07:34:37;99794.28;;;18.14;39.59
50125;BME280;36023;48.670;6.184;2023-05-03T07:37:03;99783.78;;;18.14;39.65
50125;BME280;36023;48.670;6.184;2023-05-03T07:39:28;99787.25;;;18.14;39.71
50125;BME280;36023;48.670;6.184;2023-05-03T07:41:54;99782.91;;;18.13;39.72
50125;BME280;36023;48.670;6.184;2023-05-03T07:44:20;99786.41;;;18.14;39.79
50125;BME280;36023;48.670;6.184;2023-05-03T07:46:46;99768.94;;;18.13;39.87
50125;BME280;36023;48.670;6.184;2023-05-03T07:49:12;99767.16;;;18.13;39.88
50125;BME280;36023;48.670;6.184;2023-05-03T07:51:37;99769.78;;;18.13;39.92
50125;BME280;36023;48.670;6.184;2023-05-03T07:54:03;99775.00;;;18.15;40.00
50125;BME280;36023;48.670;6.184;2023-05-03T07:56:29;99768.06;;;18.14;39.99
50125;BME280;36023;48.670;6.184;2023-05-03T07:58:55;99756.69;;;18.13;40.19
50125;BME280;36023;48.670;6.184;2023-05-03T08:01:22;99755.81;;;18.14;40.33
50125;BME280;36023;48.670;6.184;2023-05-03T08:03:48;99755.81;;;18.14;40.33
50125;BME280;36023;48.670;6.184;2023-05-03T08:06:18;99759.31;;;18.13;40.46
50125;BME280;36023;48.670;6.184;2023-05-03T08:08:44;99754.03;;;18.15;40.42
50125;BME280;36023;48.670;6.184;2023-05-03T08:11:10;99758.41;;;18.14;40.62
50125;BME280;36023;48.670;6.184;2023-05-03T08:13:36;99760.91;;;18.17;40.86
50125;BME280;36023;48.670;6.184;2023-05-03T08:16:02;99770.41;;;18.20;41.03
50125;BME280;36023;48.670;6.184;2023-05-03T08:18:27;99760.00;;;18.18;40.84
50125;BME280;36023;48.670;6.184;2023-05-03T08:20:53;99769.63;;;18.18;40.80
50125;BME280;36023;48.670;6.184;2023-05-03T08:23:18;99761.81;;;18.16;41.05
50125;BME280;36023;48.670;6.184;2023-05-03T08:25:46;99763.59;;;18.16;41.02
50125;BME280;36023;48.670;6.184;2023-05-03T08:28:12;99760.97;;;18.16;41.20
50125;BME280;36023;48.670;6.184;2023-05-03T08:30:37;99762.69;;;18.17;41.32
50125;BME280;36023;48.670;6.184;2023-05-03T08:33:03;99760.06;;;18.17;41.28
50125;BME280;36023;48.670;6.184;2023-05-03T08:35:28;99763.53;;;18.17;41.28
50125;BME280;36023;48.670;6.184;2023-05-03T08:37:54;99755.66;;;18.17;41.54
50125;BME280;36023;48.670;6.184;2023-05-03T08:40:20;99752.19;;;18.17;41.47
50125;BME280;36023;48.670;6.184;2023-05-03T08:42:46;99753.97;;;18.16;41.70
50125;BME280;36023;48.670;6.184;2023-05-03T08:45:17;99760.91;;;18.17;41.81
50125;BME280;36023;48.670;6.184;2023-05-03T08:47:43;99753.97;;;18.16;41.80
50125;BME280;36023;48.670;6.184;2023-05-03T08:50:12;99756.59;;;18.16;41.89
50125;BME280;36023;48.670;6.184;2023-05-03T08:52:38;99748.72;;;18.16;42.07
50125;BME280;36023;48.670;6.184;2023-05-03T08:55:04;99753.09;;;18.16;42.10
50125;BME280;36023;48.670;6.184;2023-05-03T08:57:29;99753.03;;;18.17;42.23
50125;BME280;36023;48.670;6.184;2023-05-03T08:59:56;99745.25;;;18.16;42.18
50125;BME280;36023;48.670;6.184;2023-05-03T09:02:23;99749.56;;;18.17;42.30
50125;BME280;36023;48.670;6.184;2023-05-03T09:04:48;99752.19;;;18.17;42.49
50125;BME280;36023;48.670;6.184;2023-05-03T09:07:14;99744.31;;;18.17;42.62
50125;BME280;36023;48.670;6.184;2023-05-03T09:09:44;99746.09;;;18.16;42.58
50125;BME280;36023;48.670;6.184;2023-05-03T09:12:10;99742.56;;;18.17;42.70
50125;BME280;36023;48.670;6.184;2023-05-03T09:14:45;99738.16;;;18.18;42.88
50125;BME280;36023;48.670;6.184;2023-05-03T09:17:14;99732.91;;;18.18;43.02
50125;BME280;36023;48.670;6.184;2023-05-03T09:19:53;99730.28;;;18.18;43.06
50125;BME280;36023;48.670;6.184;2023-05-03T09:22:21;99735.53;;;18.18;43.26
50125;BME280;36023;48.670;6.184;2023-05-03T09:24:50;99738.16;;;18.18;43.39
50125;BME280;36023;48.670;6.184;2023-05-03T09:27:18;99734.63;;;18.19;43.44
50125;BME280;36023;48.670;6.184;2023-05-03T09:29:45;99728.53;;;18.18;43.52
50125;BME280;36023;48.670;6.184;2023-05-03T09:32:11;99726.75;;;18.19;43.65
50125;BME280;36023;48.670;6.184;2023-05-03T09:34:36;99723.22;;;18.20;43.71
50125;BME280;36023;48.670;6.184;2023-05-03T09:37:02;99725.00;;;18.19;43.87
50125;BME280;36023;48.670;6.184;2023-05-03T09:39:27;99712.72;;;18.20;43.91
50125;BME280;36023;48.670;6.184;2023-05-03T09:41:54;99715.34;;;18.20;44.14
50125;BME280;36023;48.670;6.184;2023-05-03T09:44:28;99710.09;;;18.20;44.21
50125;BME280;36023;48.670;6.184;2023-05-03T09:47:05;99710.97;;;18.20;44.26
50125;BME280;36023;48.670;6.184;2023-05-03T09:49:31;99713.56;;;18.20;44.47
50125;BME280;36023;48.670;6.184;2023-05-03T09:52:00;99712.69;;;18.21;44.60
50125;BME280;36023;48.670;6.184;2023-05-03T09:54:25;99714.44;;;18.21;44.54
50125;BME280;36023;48.670;6.184;2023-05-03T09:56:54;99705.69;;;18.22;44.64
50125;BME280;36023;48.670;6.184;2023-05-03T09:59:22;99704.81;;;18.21;44.93
50125;BME280;36023;48.670;6.184;2023-05-03T10:01:47;99703.94;;;18.21;44.85
50125;BME280;36023;48.670;6.184;2023-05-03T10:04:16;99698.66;;;18.22;45.11
50125;BME280;36023;48.670;6.184;2023-05-03T10:06:46;99703.91;;;18.22;45.19
50125;BME280;36023;48.670;6.184;2023-05-03T10:09:14;99693.41;;;18.22;45.22
50125;BME280;36023;48.670;6.184;2023-05-03T10:11:47;99695.13;;;18.23;45.39
50125;BME280;36023;48.670;6.184;2023-05-03T10:14:12;99690.78;;;18.22;45.39
50125;BME280;36023;48.670;6.184;2023-05-03T10:16:39;99691.56;;;18.24;45.62
50125;BME280;36023;48.670;6.184;2023-05-03T10:19:13;99689.81;;;18.25;45.68
50125;BME280;36023;48.670;6.184;2023-05-03T10:24:25;99684.56;;;18.25;45.91
50125;BME280;36023;48.670;6.184;2023-05-03T10:26:51;99675.78;;;18.26;46.07
50125;BME280;36023;48.670;6.184;2023-05-03T10:34:30;99667.00;;;18.27;46.34
50125;BME280;36023;48.670;6.184;2023-05-03T10:36:59;99674.78;;;18.28;46.31
50125;BME280;36023;48.670;6.184;2023-05-03T10:39:25;99669.53;;;18.28;46.44
50125;BME280;36023;48.670;6.184;2023-05-03T10:42:02;99666.06;;;18.28;46.61
50125;BME280;36023;48.670;6.184;2023-05-03T10:44:39;99659.94;;;18.29;46.67
50125;BME280;36023;48.670;6.184;2023-05-03T10:47:23;99650.28;;;18.29;46.68
50125;BME280;36023;48.670;6.184;2023-05-03T10:55:11;99644.13;;;18.30;46.84
50125;BME280;36023;48.670;6.184;2023-05-03T10:57:42;99639.72;;;18.31;46.86
50125;BME280;36023;48.670;6.184;2023-05-03T11:02:36;99640.59;;;18.31;47.21
50125;BME280;36023;48.670;6.184;2023-05-03T11:05:04;99640.50;;;18.33;47.27
50125;BME280;36023;48.670;6.184;2023-05-03T11:07:33;99637.03;;;18.32;47.21
50125;BME280;36023;48.670;6.184;2023-05-03T11:09:58;99634.34;;;18.34;47.24
50125;BME280;36023;48.670;6.184;2023-05-03T11:12:24;99638.75;;;18.33;47.34
50125;BME280;36023;48.670;6.184;2023-05-03T11:14:49;99624.72;;;18.34;47.44
50125;BME280;36023;48.670;6.184;2023-05-03T11:17:15;99632.56;;;18.34;47.43
50125;BME280;36023;48.670;6.184;2023-05-03T11:19:45;99627.25;;;18.36;47.53
50125;BME280;36023;48.670;6.184;2023-05-03T11:22:11;99628.13;;;18.36;47.49
50125;BME280;36023;48.670;6.184;2023-05-03T11:24:38;99614.16;;;18.36;47.52
50125;BME280;36023;48.670;6.184;2023-05-03T11:27:04;99615.88;;;18.37;47.50
50125;BME280;36023;48.670;6.184;2023-05-03T11:29:30;99614.09;;;18.37;47.57
50125;BME280;36023;48.670;6.184;2023-05-03T11:31:56;99609.72;;;18.38;47.75
50125;BME280;36023;48.670;6.184;2023-05-03T11:34:22;99611.47;;;18.37;47.64
50125;BME280;36023;48.670;6.184;2023-05-03T11:36:48;99596.53;;;18.40;47.70
50125;BME280;36023;48.670;6.184;2023-05-03T11:39:13;99600.91;;;18.39;47.69
50125;BME280;36023;48.670;6.184;2023-05-03T11:41:41;99598.31;;;18.39;47.75
50125;BME280;36023;48.670;6.184;2023-05-03T11:44:09;99594.75;;;18.40;47.77
50125;BME280;36023;48.670;6.184;2023-05-03T11:46:37;99596.44;;;18.41;47.64
50125;BME280;36023;48.670;6.184;2023-05-03T11:49:03;99598.22;;;18.41;47.58
50125;BME280;36023;48.670;6.184;2023-05-03T11:51:28;99590.34;;;18.41;47.75
50125;BME280;36023;48.670;6.184;2023-05-03T11:53:55;99594.69;;;18.42;47.89
50125;BME280;36023;48.670;6.184;2023-05-03T11:56:22;99594.69;;;18.42;47.84
50125;BME280;36023;48.670;6.184;2023-05-03T12:01:17;99593.69;;;18.44;47.95
50125;BME280;36023;48.670;6.184;2023-05-03T12:03:43;99594.56;;;18.45;47.94
50125;BME280;36023;48.670;6.184;2023-05-03T12:06:14;99584.94;;;18.45;47.95
50125;BME280;36023;48.670;6.184;2023-05-03T12:08:39;99576.13;;;18.46;47.99
50125;BME280;36023;48.670;6.184;2023-05-03T12:11:05;99585.78;;;18.46;47.98
50125;BME280;36023;48.670;6.184;2023-05-03T12:13:31;99584.84;;;18.47;47.99
50125;BME280;36023;48.670;6.184;2023-05-03T12:15:59;99582.22;;;18.47;48.04
50125;BME280;36023;48.670;6.184;2023-05-03T12:18:26;99576.97;;;18.47;48.04
50125;BME280;36023;48.670;6.184;2023-05-03T12:20:55;99578.69;;;18.48;47.98
50125;BME280;36023;48.670;6.184;2023-05-03T12:23:25;99579.53;;;18.48;48.03
50125;BME280;36023;48.670;6.184;2023-05-03T12:25:51;99578.69;;;18.48;48.00
50125;BME280;36023;48.670;6.184;2023-05-03T12:28:18;99576.84;;;18.50;48.05
50125;BME280;36023;48.670;6.184;2023-05-03T12:30:43;99575.91;;;18.51;48.12
50125;BME280;36023;48.670;6.184;2023-05-03T12:33:09;99569.75;;;18.52;48.11
50125;BME280;36023;48.670;6.184;2023-05-03T12:35:35;99562.78;;;18.51;47.99
50125;BME280;36023;48.670;6.184;2023-05-03T12:38:00;99561.88;;;18.52;48.13
50125;BME280;36023;48.670;6.184;2023-05-03T12:40:28;99562.75;;;18.52;48.12
50125;BME280;36023;48.670;6.184;2023-05-03T12:42:55;99553.09;;;18.53;48.20
50125;BME280;36023;48.670;6.184;2023-05-03T12:45:25;99548.72;;;18.53;48.15
50125;BME280;36023;48.670;6.184;2023-05-03T12:47:51;99548.63;;;18.55;48.17
50125;BME280;36023;48.670;6.184;2023-05-03T12:50:17;99549.56;;;18.54;48.22
50125;BME280;36023;48.670;6.184;2023-05-03T12:52:42;99545.09;;;18.56;48.12
50125;BME280;36023;48.670;6.184;2023-05-03T12:55:08;99535.53;;;18.55;48.23
50125;BME280;36023;48.670;6.184;2023-05-03T12:57:33;99526.72;;;18.56;48.25
50125;BME280;36023;48.670;6.184;2023-05-03T13:00:01;99531.03;;;18.57;48.18
50125;BME280;36023;48.670;6.184;2023-05-03T13:02:27;99524.09;;;18.56;48.28
50125;BME280;36023;48.670;6.184;2023-05-03T13:04:53;99521.41;;;18.57;48.39
50125;BME280;36023;48.670;6.184;2023-05-03T13:07:22;99518.78;;;18.57;48.33
50125;BME280;36023;48.670;6.184;2023-05-03T13:09:49;99517.84;;;18.58;48.33
50125;BME280;36023;48.670;6.184;2023-05-03T13:12:14;99519.63;;;18.58;48.43
50125;BME280;36023;48.670;6.184;2023-05-03T13:14:44;99514.38;;;18.58;48.41
50125;BME280;36023;48.670;6.184;2023-05-03T13:17:10;99521.31;;;18.59;48.25
50125;BME280;36023;48.670;6.184;2023-05-03T13:19:37;99510.00;;;18.58;48.35
50125;BME280;36023;48.670;6.184;2023-05-03T13:22:03;99502.13;;;18.58;48.32
50125;BME280;36023;48.670;6.184;2023-05-03T13:24:29;99502.06;;;18.60;48.27
50125;BME280;36023;48.670;6.184;2023-05-03T13:26:56;99502.97;;;18.59;48.25